< < Back
Terminal Aerodrome Forecast


Current Version              Previous Versions:   1  2  3  4  5  6  7  8  9  

Terminal Aerodrome Forecast

673
FTUS42 KGSP 172048 AAA
TAFCLT
TAF AMD
KCLT 172048Z 1721/1818 20005KT P6SM VCSH BKN015
     FM172300 21003KT P6SM SHRA BKN015
     FM180500 00000KT P6SM BKN008
     FM181000 03002KT 5SM BR BKN015
     FM181300 04003KT P6SM BKN035=



Latest METAR

928
SAUS70 KWBC 180800
MTRCLT
METAR KCLT 180752Z 32004KT 7SM BKN004 BKN009 OVC100 16/15 A3000 RMK AO2
RAE0654 SLP152 P0000 T01610150


USA.gov is the U.S. government's official web portal to all federal, state and local government web resources and services.